createdAt,value
2023-04-27T00:02:20.590Z,102107.63
2023-04-27T00:04:48.558Z,102113.97
2023-04-27T00:07:16.707Z,102109.72
2023-04-27T00:09:44.535Z,102123.19
2023-04-27T00:12:12.334Z,102117.00
2023-04-27T00:14:41.845Z,102111.94
2023-04-27T00:17:09.691Z,102119.31
2023-04-27T00:19:37.532Z,102107.00
2023-04-27T00:22:06.357Z,102106.25
2023-04-27T00:24:34.384Z,102109.88
2023-04-27T00:27:03.107Z,102110.84
2023-04-27T00:29:30.922Z,102109.31
2023-04-27T00:32:00.230Z,102115.50
2023-04-27T00:34:28.022Z,102106.72
2023-04-27T00:36:55.764Z,102100.06
2023-04-27T00:39:23.496Z,102106.94
2023-04-27T00:41:51.220Z,102098.06
2023-04-27T00:44:24.257Z,102104.47
2023-04-27T00:46:52.365Z,102108.16
2023-04-27T00:49:22.261Z,102099.28
2023-04-27T00:51:50.149Z,102090.47
2023-04-27T00:54:21.254Z,102095.16
2023-04-27T00:56:50.913Z,102097.03
2023-04-27T00:59:18.759Z,102089.34
2023-04-27T01:01:47.628Z,102083.03
2023-04-27T01:04:18.053Z,102089.34
2023-04-27T01:06:47.352Z,102042.44
2023-04-27T01:09:16.641Z,102093.22
2023-04-27T01:11:44.489Z,102091.75
2023-04-27T01:14:12.315Z,102082.22
2023-04-27T01:16:40.713Z,102099.88
2023-04-27T01:19:09.191Z,102083.25
2023-04-27T01:21:37.259Z,102085.78
2023-04-27T01:24:07.900Z,102080.56
2023-04-27T01:26:35.904Z,102081.59
2023-04-27T01:29:03.721Z,102078.00
2023-04-27T01:31:32.102Z,102072.78
2023-04-27T01:33:59.837Z,102079.91
2023-04-27T01:36:28.215Z,102072.84
2023-04-27T01:38:56.162Z,102072.94
2023-04-27T01:41:25.346Z,102065.16
2023-04-27T01:43:54.239Z,102071.19
2023-04-27T01:46:22.201Z,102074.81
2023-04-27T01:48:50.053Z,102054.59
2023-04-27T01:51:17.814Z,102072.38
2023-04-27T01:53:45.561Z,102071.66
2023-04-27T01:56:13.453Z,102073.53
2023-04-27T01:58:43.118Z,102070.00
2023-04-27T02:01:11.485Z,102070.13
2023-04-27T02:03:39.476Z,102078.19
2023-04-27T02:06:08.038Z,102067.53
2023-04-27T02:08:36.074Z,102072.09
2023-04-27T02:11:04.238Z,102073.97
2023-04-27T02:13:32.009Z,102065.91
2023-04-27T02:16:02.247Z,102071.28
2023-04-27T02:18:30.042Z,102074.06
2023-04-27T02:20:57.871Z,102067.91
2023-04-27T02:23:25.640Z,102054.66
2023-04-27T02:25:53.365Z,102064.63
2023-04-27T02:28:21.134Z,102056.94
2023-04-27T02:30:49.585Z,102058.69
2023-04-27T02:33:18.668Z,102057.88
2023-04-27T02:35:46.484Z,102058.09
2023-04-27T02:38:14.310Z,102057.00
2023-04-27T02:40:42.126Z,102056.13
2023-04-27T02:43:10.711Z,102045.53
2023-04-27T02:45:39.178Z,102049.09
2023-04-27T02:48:07.755Z,102051.06
2023-04-27T02:50:41.903Z,102048.44
2023-04-27T02:53:10.035Z,102048.56
2023-04-27T02:55:37.945Z,102049.59
2023-04-27T02:58:06.020Z,102054.97
2023-04-27T03:00:34.241Z,102060.38
2023-04-27T03:03:02.196Z,102057.88
2023-04-27T03:05:31.812Z,102059.81
2023-04-27T03:08:01.377Z,102052.81
2023-04-27T03:10:29.329Z,102059.06
2023-04-27T03:12:57.201Z,102065.31
2023-04-27T03:15:24.950Z,102058.19
2023-04-27T03:17:52.912Z,102066.19
2023-04-27T03:20:21.004Z,102042.53
2023-04-27T03:22:48.832Z,102060.22
2023-04-27T03:25:17.988Z,102055.69
2023-04-27T03:27:45.807Z,102061.25
2023-04-27T03:30:14.473Z,102066.84
2023-04-27T03:32:42.270Z,102066.91
2023-04-27T03:35:10.903Z,102069.69
2023-04-27T03:37:38.722Z,102053.88
2023-04-27T03:40:08.290Z,102057.50
2023-04-27T03:42:37.456Z,102063.72
2023-04-27T03:45:06.658Z,102063.06
2023-04-27T03:47:34.495Z,102057.75
2023-04-27T03:50:02.279Z,102043.06
2023-04-27T03:52:30.062Z,102068.50
2023-04-27T03:54:57.799Z,102064.88
2023-04-27T03:57:25.571Z,102072.13
2023-04-27T03:59:54.715Z,102073.88
2023-04-27T04:02:23.522Z,102078.25
2023-04-27T04:04:51.841Z,102072.13
2023-04-27T04:07:19.899Z,102084.56
2023-04-27T04:09:47.625Z,102065.28
2023-04-27T04:12:15.543Z,102086.41
2023-04-27T04:14:43.711Z,102084.66
2023-04-27T04:17:12.877Z,102086.44
2023-04-27T04:19:40.782Z,102084.78
2023-04-27T04:22:08.688Z,102075.84
2023-04-27T04:24:37.639Z,102079.47
2023-04-27T04:27:05.480Z,102087.53
2023-04-27T04:29:33.834Z,102085.94
2023-04-27T04:32:01.680Z,102088.56
2023-04-27T04:34:31.248Z,102086.81
2023-04-27T04:36:59.011Z,102079.47
2023-04-27T04:39:27.028Z,102083.19
2023-04-27T04:41:54.793Z,102092.03
2023-04-27T04:44:22.622Z,102095.97
2023-04-27T04:46:51.212Z,102108.44
2023-04-27T04:49:19.142Z,102110.25
2023-04-27T04:51:48.356Z,102110.25
2023-04-27T04:54:16.363Z,102103.13
2023-04-27T04:56:44.118Z,102111.09
2023-04-27T04:59:12.416Z,102118.25
2023-04-27T05:01:40.400Z,102110.34
2023-04-27T05:04:08.270Z,102114.72
2023-04-27T05:06:36.187Z,102106.56
2023-04-27T05:09:06.391Z,102108.25
2023-04-27T05:11:34.219Z,102113.69
2023-04-27T05:14:01.932Z,102102.13
2023-04-27T05:16:29.677Z,102107.50
2023-04-27T05:18:58.210Z,102122.69
2023-04-27T05:21:25.940Z,102123.44
2023-04-27T05:23:53.888Z,102110.00
2023-04-27T05:26:23.019Z,102121.28
2023-04-27T05:28:50.907Z,102122.00
2023-04-27T05:31:18.792Z,102119.25
2023-04-27T05:33:46.650Z,102124.50
2023-04-27T05:36:14.361Z,102115.41
2023-04-27T05:38:42.933Z,102125.16
2023-04-27T05:41:10.700Z,102118.75
2023-04-27T05:43:39.845Z,102116.88
2023-04-27T05:46:07.842Z,102115.03
2023-04-27T05:48:36.027Z,102112.06
2023-04-27T05:51:04.857Z,102117.25
2023-04-27T05:53:34.274Z,102106.59
2023-04-27T05:56:04.363Z,102119.63
2023-04-27T05:58:32.456Z,102131.06
2023-04-27T06:01:03.034Z,102124.44
2023-04-27T06:03:31.324Z,102135.63
2023-04-27T06:06:00.852Z,102124.56
2023-04-27T06:08:29.701Z,102125.94
2023-04-27T06:10:57.621Z,102126.38
2023-04-27T06:13:25.410Z,102134.06
2023-04-27T06:15:53.384Z,102133.63
2023-04-27T06:18:22.549Z,102132.16
2023-04-27T06:20:50.917Z,102130.94
2023-04-27T06:23:18.758Z,102129.31
2023-04-27T06:25:46.536Z,102132.25
2023-04-27T06:28:14.414Z,102137.09
2023-04-27T06:30:42.146Z,102135.50
2023-04-27T06:33:10.527Z,102127.69
2023-04-27T06:35:39.718Z,102124.19
2023-04-27T06:38:08.057Z,102131.75
2023-04-27T06:40:37.234Z,102111.63
2023-04-27T06:43:05.134Z,102116.09
2023-04-27T06:45:32.873Z,102123.28
2023-04-27T06:48:00.933Z,102115.38
2023-04-27T06:50:29.275Z,102117.28
2023-04-27T06:52:58.507Z,102122.06
2023-04-27T06:55:26.553Z,102117.16
2023-04-27T06:57:54.477Z,102122.19
2023-04-27T07:00:23.308Z,102119.06
2023-04-27T07:02:51.524Z,102123.06
2023-04-27T07:05:19.582Z,102103.69
2023-04-27T07:07:47.708Z,102117.25
2023-04-27T07:10:16.992Z,102115.72
2023-04-27T07:12:45.103Z,102096.03
2023-04-27T07:15:12.946Z,102121.59
2023-04-27T07:17:41.471Z,102109.81
2023-04-27T07:20:10.139Z,102111.25
2023-04-27T07:22:37.887Z,102108.47
2023-04-27T07:25:06.572Z,102113.47
2023-04-27T07:27:36.267Z,102120.75
2023-04-27T07:30:04.694Z,102116.41
2023-04-27T07:32:32.691Z,102107.78
2023-04-27T07:35:00.912Z,102103.22
2023-04-27T07:37:28.981Z,102120.03
2023-04-27T07:39:57.768Z,102100.03
2023-04-27T07:42:26.033Z,102103.78
2023-04-27T07:44:55.226Z,102108.50
2023-04-27T07:47:23.010Z,102114.50
2023-04-27T07:49:53.046Z,102119.69
2023-04-27T07:52:20.977Z,102123.44
2023-04-27T07:54:48.805Z,102117.81
2023-04-27T07:57:16.702Z,102121.75
2023-04-27T07:59:44.855Z,102105.94
2023-04-27T08:02:19.593Z,102101.06
2023-04-27T08:04:54.218Z,102104.34
2023-04-27T08:07:22.601Z,102096.09
2023-04-27T08:09:52.273Z,102121.66
2023-04-27T08:12:20.442Z,102115.69
2023-04-27T08:14:48.346Z,102109.75
2023-04-27T08:17:18.565Z,102111.25
2023-04-27T08:19:46.675Z,102106.81
2023-04-27T08:22:14.901Z,102096.41
2023-04-27T08:24:43.307Z,102093.97
2023-04-27T08:27:11.154Z,102093.88
2023-04-27T08:29:39.062Z,102088.34
2023-04-27T08:32:07.237Z,102096.25
2023-04-27T08:34:36.524Z,102106.47
2023-04-27T08:37:04.568Z,102104.06
2023-04-27T08:39:32.762Z,102107.31
2023-04-27T08:42:00.730Z,102102.97
2023-04-27T08:44:28.729Z,102101.88
2023-04-27T08:46:56.845Z,102095.34
2023-04-27T08:49:24.626Z,102099.38
2023-04-27T08:51:53.817Z,102093.63
2023-04-27T08:54:22.069Z,102092.81
2023-04-27T08:56:49.954Z,102100.06
2023-04-27T08:59:18.102Z,102101.44
2023-04-27T09:01:48.634Z,102098.31
2023-04-27T09:04:17.914Z,102095.78
2023-04-27T09:06:46.235Z,102099.16
2023-04-27T09:09:25.248Z,102077.47
2023-04-27T09:11:53.509Z,102092.31
2023-04-27T09:14:22.853Z,102102.25
2023-04-27T09:16:57.478Z,102088.69
2023-04-27T09:19:26.473Z,102093.28
2023-04-27T09:22:05.715Z,102094.94
2023-04-27T09:24:35.283Z,102094.09
2023-04-27T09:27:05.227Z,102082.09
2023-04-27T09:29:37.352Z,102080.88
2023-04-27T09:32:17.568Z,102082.22
2023-04-27T09:34:46.125Z,102081.25
2023-04-27T09:37:14.387Z,102068.78
2023-04-27T09:39:44.617Z,102076.09
2023-04-27T09:42:14.314Z,102073.75
2023-04-27T09:44:42.193Z,102088.72
2023-04-27T09:47:11.786Z,102091.59
2023-04-27T09:49:39.561Z,102092.06
2023-04-27T09:52:07.521Z,102078.22
2023-04-27T09:54:36.974Z,102061.00
2023-04-27T09:57:19.764Z,102085.50
2023-04-27T10:00:08.039Z,102083.13
2023-04-27T10:05:48.775Z,102079.81
2023-04-27T10:08:16.992Z,102083.09
2023-04-27T10:10:48.047Z,102077.72
2023-04-27T10:13:24.598Z,102069.16
2023-04-27T10:15:52.591Z,102071.44
2023-04-27T10:18:28.902Z,102070.06
2023-04-27T10:20:56.823Z,102068.09
2023-04-27T10:23:25.870Z,102061.13
2023-04-27T10:25:54.914Z,102064.00
2023-04-27T10:28:24.316Z,102075.34
2023-04-27T10:30:52.231Z,102073.56
2023-04-27T10:33:24.230Z,102076.34
2023-04-27T10:35:56.650Z,102073.66
2023-04-27T10:38:31.324Z,102067.75
2023-04-27T10:41:01.973Z,102057.41
2023-04-27T10:43:34.275Z,102062.06
2023-04-27T10:46:12.847Z,102050.91
2023-04-27T10:48:41.131Z,102026.22
2023-04-27T10:51:09.054Z,102040.47
2023-04-27T10:53:37.366Z,102052.72
2023-04-27T10:56:07.468Z,102024.06
2023-04-27T10:58:48.966Z,102035.69
2023-04-27T11:01:26.012Z,102044.03
2023-04-27T11:03:57.173Z,102036.41
2023-04-27T11:06:25.042Z,102023.34
2023-04-27T11:08:53.216Z,102041.34
2023-04-27T11:11:22.558Z,102034.53
2023-04-27T11:13:52.984Z,102017.78
2023-04-27T11:16:21.122Z,102028.13
2023-04-27T11:18:51.468Z,102025.25
2023-04-27T11:21:22.060Z,102024.63
2023-04-27T11:23:49.950Z,101992.53
2023-04-27T11:26:19.617Z,102025.00
2023-04-27T11:29:00.976Z,102008.72
2023-04-27T11:31:29.769Z,102023.00
2023-04-27T11:33:57.947Z,102020.56
2023-04-27T11:36:27.623Z,102021.34
2023-04-27T11:38:59.938Z,102024.50
2023-04-27T11:41:35.061Z,102007.22
2023-04-27T11:44:08.636Z,102010.22
2023-04-27T11:46:37.839Z,102003.31
2023-04-27T11:49:08.729Z,102002.28
2023-04-27T11:51:37.635Z,102007.59
2023-04-27T11:54:07.535Z,102007.72
2023-04-27T11:56:36.648Z,101973.97
2023-04-27T11:59:04.994Z,102001.84
2023-04-27T12:01:38.018Z,101991.28
2023-04-27T12:04:07.077Z,101991.66
2023-04-27T12:06:35.118Z,101987.19
2023-04-27T12:09:04.360Z,101984.75
2023-04-27T12:11:32.444Z,102000.72
2023-04-27T12:14:00.294Z,101998.13
2023-04-27T12:16:28.740Z,101984.81
2023-04-27T12:18:58.031Z,101996.78
2023-04-27T12:21:26.179Z,101995.06
2023-04-27T12:23:54.484Z,101979.91
2023-04-27T12:26:22.379Z,101986.66
2023-04-27T12:28:50.212Z,101985.97
2023-04-27T12:31:23.236Z,101979.38
2023-04-27T12:33:52.754Z,101968.25
2023-04-27T12:36:22.060Z,101974.28
2023-04-27T12:38:50.310Z,101971.38
2023-04-27T12:41:18.680Z,101960.38
2023-04-27T12:43:49.009Z,101962.53
2023-04-27T12:46:18.314Z,101964.34
2023-04-27T12:48:46.368Z,101963.38
2023-04-27T12:51:14.938Z,101958.44
2023-04-27T12:53:44.389Z,101970.28
2023-04-27T12:56:12.548Z,101935.31
2023-04-27T12:58:41.704Z,101957.47
2023-04-27T13:01:15.144Z,101938.00
2023-04-27T13:03:43.363Z,101947.66
2023-04-27T13:06:12.679Z,101953.00
2023-04-27T13:08:43.973Z,101953.03
2023-04-27T13:11:13.290Z,101945.84
2023-04-27T13:13:41.420Z,101934.44
2023-04-27T13:16:10.157Z,101940.16
2023-04-27T13:18:38.080Z,101946.34
2023-04-27T13:21:07.009Z,101944.19
2023-04-27T13:23:34.880Z,101932.00
2023-04-27T13:26:02.791Z,101938.25
2023-04-27T13:28:31.965Z,101943.00
2023-04-27T13:31:00.533Z,101917.66
2023-04-27T13:33:28.876Z,101907.56
2023-04-27T13:35:56.730Z,101928.81
2023-04-27T13:38:24.505Z,101927.53
2023-04-27T13:40:52.406Z,101924.50
2023-04-27T13:43:20.286Z,101918.47
2023-04-27T13:45:52.448Z,101929.25
2023-04-27T13:48:20.679Z,101918.84
2023-04-27T13:50:48.722Z,101910.91
2023-04-27T13:53:17.018Z,101910.88
2023-04-27T13:55:45.201Z,101910.75
2023-04-27T13:58:13.374Z,101904.56
2023-04-27T14:00:41.620Z,101871.25
2023-04-27T14:03:10.944Z,101883.16
2023-04-27T14:05:40.958Z,101873.66
2023-04-27T14:08:08.896Z,101869.38
2023-04-27T14:10:37.562Z,101885.94
2023-04-27T14:13:05.541Z,101862.97
2023-04-27T14:15:37.113Z,101869.88
2023-04-27T14:18:06.419Z,101876.75
2023-04-27T14:20:36.025Z,101848.72
2023-04-27T14:23:05.011Z,101853.72
2023-04-27T14:25:34.574Z,101850.56
2023-04-27T14:28:04.089Z,101849.53
2023-04-27T14:30:32.982Z,101856.47
2023-04-27T14:33:00.836Z,101842.34
2023-04-27T14:35:29.358Z,101851.84
2023-04-27T14:38:02.493Z,101852.22
2023-04-27T14:40:30.991Z,101849.06
2023-04-27T14:42:59.604Z,101846.81
2023-04-27T14:45:36.741Z,101860.88
2023-04-27T14:48:11.884Z,101851.84
2023-04-27T14:50:39.996Z,101851.69
2023-04-27T14:53:09.150Z,101846.53
2023-04-27T14:55:37.182Z,101837.47
2023-04-27T14:58:05.031Z,101816.69
2023-04-27T15:00:32.969Z,101820.84
2023-04-27T15:03:01.144Z,101799.69
2023-04-27T15:05:29.225Z,101826.72
2023-04-27T15:07:57.141Z,101826.44
2023-04-27T15:10:26.345Z,101823.00
2023-04-27T15:12:54.440Z,101827.59
2023-04-27T15:15:22.484Z,101824.59
2023-04-27T15:17:50.635Z,101832.78
2023-04-27T15:20:18.862Z,101821.38
2023-04-27T15:22:47.200Z,101807.00
2023-04-27T15:25:15.026Z,101828.81
2023-04-27T15:27:44.892Z,101799.59
2023-04-27T15:30:13.498Z,101811.84
2023-04-27T15:32:41.862Z,101805.13
2023-04-27T15:35:10.310Z,101798.94
2023-04-27T15:37:38.375Z,101813.66
2023-04-27T15:40:08.116Z,101793.22
2023-04-27T15:42:36.301Z,101794.38
2023-04-27T15:45:08.008Z,101791.25
2023-04-27T15:47:37.350Z,101783.19
2023-04-27T15:50:06.111Z,101777.16
2023-04-27T15:52:33.993Z,101775.44
2023-04-27T15:55:04.208Z,101775.44
2023-04-27T15:57:32.113Z,101744.97
2023-04-27T16:00:00.166Z,101768.84
2023-04-27T16:02:29.414Z,101747.25
2023-04-27T16:04:57.392Z,101761.34
2023-04-27T16:07:25.324Z,101766.38
2023-04-27T16:09:53.266Z,101746.09
2023-04-27T16:12:21.549Z,101742.09
2023-04-27T16:14:52.028Z,101723.59
2023-04-27T16:17:20.291Z,101754.91
2023-04-27T16:19:49.714Z,101741.09
2023-04-27T16:22:17.968Z,101729.19
2023-04-27T16:24:45.928Z,101742.16
2023-04-27T16:27:13.877Z,101716.53
2023-04-27T16:29:42.245Z,101724.03
2023-04-27T16:32:11.031Z,101708.22
2023-04-27T16:34:39.147Z,101727.03
2023-04-27T16:37:08.784Z,101704.34
2023-04-27T16:39:36.962Z,101719.13
2023-04-27T16:42:05.376Z,101707.47
2023-04-27T16:44:33.424Z,101701.84
2023-04-27T16:47:01.550Z,101701.13
2023-04-27T16:49:29.646Z,101703.03
2023-04-27T16:51:57.626Z,101716.97
2023-04-27T16:54:27.045Z,101714.94
2023-04-27T16:56:55.428Z,101721.88
2023-04-27T16:59:23.777Z,101713.53
2023-04-27T17:01:51.992Z,101713.22
2023-04-27T17:04:20.857Z,101714.50
2023-04-27T17:06:49.203Z,101702.00
2023-04-27T17:09:17.534Z,101672.13
2023-04-27T17:11:47.127Z,101704.47
2023-04-27T17:14:15.244Z,101693.53
2023-04-27T17:16:43.277Z,101707.47
2023-04-27T17:19:12.120Z,101698.16
2023-04-27T17:21:40.216Z,101701.88
2023-04-27T17:24:09.732Z,101702.75
2023-04-27T17:26:39.124Z,101705.06
2023-04-27T17:29:08.370Z,101673.16
2023-04-27T17:31:36.380Z,101695.16
2023-04-27T17:34:04.385Z,101690.84
2023-04-27T17:36:32.925Z,101692.13
2023-04-27T17:39:01.600Z,101695.44
2023-04-27T17:41:29.912Z,101684.66
2023-04-27T17:43:59.050Z,101695.00
2023-04-27T17:46:28.347Z,101686.25
2023-04-27T17:48:56.341Z,101671.16
2023-04-27T17:51:24.346Z,101679.63
2023-04-27T17:53:52.482Z,101685.50
2023-04-27T17:56:20.352Z,101680.59
2023-04-27T17:58:48.553Z,101683.88
2023-04-27T18:01:16.813Z,101689.91
2023-04-27T18:03:46.436Z,101682.88
2023-04-27T18:06:14.859Z,101668.63
2023-04-27T18:08:43.097Z,101681.28
2023-04-27T18:11:11.245Z,101679.41
2023-04-27T18:13:39.115Z,101684.16
2023-04-27T18:16:07.449Z,101682.09
2023-04-27T18:18:35.471Z,101646.31
2023-04-27T18:21:06.581Z,101672.19
2023-04-27T18:23:36.331Z,101670.47
2023-04-27T18:26:04.351Z,101673.19
2023-04-27T18:28:32.250Z,101675.59
2023-04-27T18:31:00.236Z,101677.47
2023-04-27T18:33:28.508Z,101670.88
2023-04-27T18:35:56.393Z,101670.13
2023-04-27T18:38:26.234Z,101670.72
2023-04-27T18:40:54.062Z,101654.03
2023-04-27T18:43:22.454Z,101659.06
2023-04-27T18:45:51.782Z,101631.59
2023-04-27T18:48:20.257Z,101633.44
2023-04-27T18:50:49.597Z,101649.16
2023-04-27T18:53:17.434Z,101652.28
2023-04-27T18:55:47.071Z,101651.41
2023-04-27T18:58:14.961Z,101649.09
2023-04-27T19:00:44.704Z,101655.50
2023-04-27T19:03:12.706Z,101626.88
2023-04-27T19:05:43.154Z,101639.66
2023-04-27T19:08:11.559Z,101661.38
2023-04-27T19:10:41.434Z,101655.91
2023-04-27T19:13:10.894Z,101654.00
2023-04-27T19:15:38.960Z,101648.97
2023-04-27T19:18:10.964Z,101644.19
2023-04-27T19:20:39.588Z,101653.03
2023-04-27T19:23:09.726Z,101636.97
2023-04-27T19:25:37.624Z,101649.72
2023-04-27T19:28:05.936Z,101621.19
2023-04-27T19:30:35.368Z,101646.50
2023-04-27T19:33:04.429Z,101650.50
2023-04-27T19:35:32.363Z,101649.91
2023-04-27T19:38:00.219Z,101627.09
2023-04-27T19:40:28.000Z,101651.16
2023-04-27T19:42:55.937Z,101630.88
2023-04-27T19:45:23.942Z,101640.53
2023-04-27T19:47:54.284Z,101642.50
2023-04-27T19:50:22.219Z,101629.38
2023-04-27T19:52:50.152Z,101630.50
2023-04-27T19:55:18.015Z,101642.84
2023-04-27T19:57:45.848Z,101633.09
2023-04-27T20:00:14.951Z,101605.47
2023-04-27T20:02:46.344Z,101642.13
2023-04-27T20:05:16.236Z,101632.75
2023-04-27T20:07:44.364Z,101628.69
2023-04-27T20:10:12.184Z,101638.72
2023-04-27T20:12:55.432Z,101626.13
2023-04-27T20:15:25.236Z,101636.00
2023-04-27T20:17:53.297Z,101625.50
2023-04-27T20:20:22.886Z,101617.72
2023-04-27T20:22:50.801Z,101630.06
2023-04-27T20:25:19.675Z,101625.50
2023-04-27T20:27:48.172Z,101617.25
2023-04-27T20:30:16.417Z,101620.00
2023-04-27T20:32:45.154Z,101625.94
2023-04-27T20:35:12.995Z,101617.41
2023-04-27T20:37:43.693Z,101603.59
2023-04-27T20:40:14.577Z,101598.66
2023-04-27T20:42:43.609Z,101595.19
2023-04-27T20:45:12.341Z,101585.16
2023-04-27T20:47:40.212Z,101580.00
2023-04-27T20:50:09.368Z,101576.81
2023-04-27T20:52:37.186Z,101559.28
2023-04-27T20:55:07.481Z,101557.69
2023-04-27T20:57:35.272Z,101554.72
2023-04-27T21:00:04.011Z,101544.34
2023-04-27T21:02:31.877Z,101550.00
2023-04-27T21:04:59.849Z,101535.22
2023-04-27T21:07:27.744Z,101538.69
2023-04-27T21:09:55.806Z,101539.09
2023-04-27T21:12:24.965Z,101523.31
2023-04-27T21:14:52.731Z,101517.25
2023-04-27T21:17:20.612Z,101517.25
2023-04-27T21:19:48.446Z,101498.25
2023-04-27T21:22:16.274Z,101511.66
2023-04-27T21:24:44.141Z,101509.53
2023-04-27T21:27:12.098Z,101516.69
2023-04-27T21:29:41.623Z,101478.06
2023-04-27T21:32:09.555Z,101498.53
2023-04-27T21:34:37.350Z,101499.00
2023-04-27T21:37:05.168Z,101495.69
2023-04-27T21:39:32.957Z,101487.53
2023-04-27T21:42:00.914Z,101483.81
2023-04-27T21:44:28.687Z,101485.09
2023-04-27T21:46:58.004Z,101475.44
2023-04-27T21:49:26.355Z,101473.50
2023-04-27T21:51:54.233Z,101472.25
2023-04-27T21:54:22.146Z,101468.66
2023-04-27T21:56:49.889Z,101476.09
2023-04-27T21:59:17.711Z,101477.44
2023-04-27T22:01:45.540Z,101473.75
2023-04-27T22:04:15.078Z,101477.22
2023-04-27T22:06:43.449Z,101467.47
2023-04-27T22:09:12.227Z,101474.75
2023-04-27T22:11:40.242Z,101460.03
2023-04-27T22:14:08.406Z,101466.97
2023-04-27T22:16:36.838Z,101459.19
2023-04-27T22:19:04.897Z,101458.56
2023-04-27T22:21:33.969Z,101460.44
2023-04-27T22:24:01.746Z,101462.75
2023-04-27T22:26:29.545Z,101446.94
2023-04-27T22:28:57.361Z,101443.38
2023-04-27T22:31:25.900Z,101439.06
2023-04-27T22:33:53.745Z,101429.44
2023-04-27T22:36:21.576Z,101412.53
2023-04-27T22:38:51.224Z,101405.91
2023-04-27T22:41:19.296Z,101412.81
2023-04-27T22:43:47.016Z,101403.94
2023-04-27T22:46:14.817Z,101403.94
2023-04-27T22:48:45.179Z,101400.97
2023-04-27T22:51:12.971Z,101393.97
2023-04-27T22:53:40.767Z,101396.69
2023-04-27T22:56:10.286Z,101403.19
2023-04-27T22:58:38.192Z,101402.56
2023-04-27T23:01:06.228Z,101405.53
2023-04-27T23:03:34.278Z,101408.63
2023-04-27T23:06:02.179Z,101402.56
2023-04-27T23:08:30.101Z,101405.28
2023-04-27T23:10:57.990Z,101395.41
2023-04-27T23:13:27.778Z,101385.06
2023-04-27T23:15:55.889Z,101398.88
2023-04-27T23:18:23.758Z,101390.00
2023-04-27T23:20:54.552Z,101391.09
2023-04-27T23:23:22.436Z,101386.19
2023-04-27T23:25:50.288Z,101390.63
2023-04-27T23:28:18.202Z,101388.03
2023-04-27T23:30:53.829Z,101402.34
2023-04-27T23:33:22.316Z,101388.16
2023-04-27T23:35:50.132Z,101388.16
2023-04-27T23:38:18.315Z,101380.75
2023-04-27T23:40:46.293Z,101375.19
2023-04-27T23:43:14.099Z,101381.75
2023-04-27T23:45:41.919Z,101384.19
2023-04-27T23:48:11.104Z,101381.59
2023-04-27T23:50:38.975Z,101367.56
2023-04-27T23:53:06.734Z,101367.19
2023-04-27T23:55:35.589Z,101363.72
2023-04-27T23:58:03.704Z,101353.25
